Time;durP1;ratioP1;P1;durP2;ratioP2;P2;SDS_P1;SDS_P2;PMS_P1;PMS_P2;Temp;Humidity;BMP_temperature;BMP_pressure;BME280_temperature;BME280_humidity;BME280_pressure;Samples;Min_cycle;Max_cycle;Signal;HPM_P1;HPM_P2
2022/06/01 00:01:51;;;;;;;11.63;7.13;;;10.20;99.90;;;;;;5075550;28;20268;-68
2022/06/01 00:04:19;;;;;;;8.37;6.80;;;10.20;99.90;;;;;;5075353;28;20177;-68
2022/06/01 00:06:45;;;;;;;9.37;7.63;;;10.20;99.90;;;;;;5075600;28;20158;-68
2022/06/01 00:09:11;;;;;;;9.40;7.50;;;10.20;99.90;;;;;;5075468;28;20547;-68
2022/06/01 00:11:36;;;;;;;9.13;7.47;;;10.20;99.90;;;;;;5075733;28;20173;-68
2022/06/01 00:14:02;;;;;;;8.60;7.53;;;10.20;99.90;;;;;;5073827;28;20649;-68
2022/06/01 00:16:28;;;;;;;13.93;8.03;;;10.10;99.90;;;;;;5075397;28;20642;-68
2022/06/01 00:18:54;;;;;;;9.60;7.50;;;10.00;99.90;;;;;;5074007;28;20203;-68
2022/06/01 00:21:19;;;;;;;10.43;7.77;;;10.00;99.90;;;;;;5074964;28;20201;-68
2022/06/01 00:23:45;;;;;;;7.80;7.00;;;9.90;99.90;;;;;;5075249;28;20744;-68
2022/06/01 00:26:11;;;;;;;9.40;7.90;;;10.00;99.90;;;;;;5075434;28;20178;-68
2022/06/01 00:28:37;;;;;;;8.53;7.57;;;10.00;99.90;;;;;;5075398;28;20638;-68
2022/06/01 00:31:03;;;;;;;9.03;7.17;;;10.00;99.90;;;;;;5073765;28;20269;-68
2022/06/01 00:33:30;;;;;;;11.93;7.83;;;10.00;99.90;;;;;;5073778;28;20232;-68
2022/06/01 00:35:56;;;;;;;10.23;7.60;;;10.00;99.90;;;;;;5074958;28;20264;-68
2022/06/01 00:38:22;;;;;;;8.53;7.60;;;9.90;99.90;;;;;;5074075;28;20185;-68
2022/06/01 00:40:48;;;;;;;8.40;7.47;;;10.00;99.90;;;;;;5075025;28;20198;-68
2022/06/01 00:43:24;;;;;;;9.70;7.73;;;10.00;99.90;;;;;;5075055;28;20178;-68
2022/06/01 00:45:50;;;;;;;10.17;8.10;;;10.00;99.90;;;;;;5074861;28;20697;-68
2022/06/01 00:48:19;;;;;;;10.10;7.77;;;9.90;99.90;;;;;;5074752;28;20292;-68
2022/06/01 00:50:45;;;;;;;9.07;7.97;;;9.90;99.90;;;;;;5074312;28;20193;-68
2022/06/01 00:53:17;;;;;;;8.80;7.47;;;9.90;99.90;;;;;;5074585;28;20182;-68
2022/06/01 00:55:47;;;;;;;9.90;7.97;;;9.80;99.90;;;;;;5074597;28;20241;-68
2022/06/01 00:58:27;;;;;;;10.27;8.73;;;9.70;99.90;;;;;;5074787;28;20162;-68
2022/06/01 01:00:55;;;;;;;10.63;7.90;;;9.70;99.90;;;;;;5074479;28;20212;-68
2022/06/01 01:03:23;;;;;;;8.77;7.77;;;9.70;99.90;;;;;;5073228;28;20188;-68
2022/06/01 01:06:05;;;;;;;9.70;8.23;;;9.70;99.90;;;;;;5072949;28;20182;-68
2022/06/01 01:08:31;;;;;;;10.53;8.17;;;9.70;99.90;;;;;;5073113;28;20189;-68
2022/06/01 01:10:57;;;;;;;11.93;9.07;;;9.70;99.90;;;;;;5074472;28;20202;-68
2022/06/01 01:13:23;;;;;;;11.37;9.60;;;9.70;99.90;;;;;;5074018;28;20260;-68
2022/06/01 01:15:55;;;;;;;10.60;9.17;;;9.60;99.90;;;;;;5074503;28;20248;-68
2022/06/01 01:18:31;;;;;;;13.23;10.10;;;9.60;99.90;;;;;;5074516;28;20591;-68
2022/06/01 01:21:27;;;;;;;12.30;9.63;;;9.60;99.90;;;;;;5074127;28;20211;-68
2022/06/01 01:24:14;;;;;;;11.70;9.17;;;9.70;99.90;;;;;;5073131;28;20525;-68
2022/06/01 01:26:43;;;;;;;11.30;10.10;;;9.80;99.90;;;;;;5074411;28;20203;-67
2022/06/01 01:29:10;;;;;;;11.20;9.70;;;9.80;99.90;;;;;;5072853;28;20243;-68
2022/06/01 01:31:39;;;;;;;10.73;9.10;;;9.80;99.90;;;;;;5074378;28;20181;-68
2022/06/01 01:34:06;;;;;;;11.47;9.93;;;9.80;99.90;;;;;;5074029;28;20215;-69
2022/06/01 01:36:35;;;;;;;16.77;9.67;;;9.80;99.90;;;;;;5072413;28;20276;-68
2022/06/01 01:39:11;;;;;;;13.00;10.93;;;9.80;99.90;;;;;;5073723;28;20265;-68
2022/06/01 01:41:42;;;;;;;13.23;11.10;;;9.80;99.90;;;;;;5073883;28;20170;-69
2022/06/01 01:44:40;;;;;;;13.57;10.80;;;9.80;99.90;;;;;;5073909;28;20661;-68
2022/06/01 01:47:06;;;;;;;13.20;10.27;;;9.70;99.90;;;;;;5069143;28;20197;-69
2022/06/01 01:49:34;;;;;;;13.00;11.07;;;9.60;99.90;;;;;;5072858;28;20209;-67
2022/06/01 01:52:06;;;;;;;11.47;10.27;;;9.60;99.90;;;;;;5072861;28;20177;-67
2022/06/01 01:54:53;;;;;;;12.97;10.90;;;9.60;99.90;;;;;;5074666;28;20197;-69
2022/06/01 01:57:44;;;;;;;11.53;10.33;;;9.70;99.90;;;;;;5074403;28;20169;-68
2022/06/01 02:00:41;;;;;;;12.87;9.90;;;9.60;99.90;;;;;;5073700;28;20235;-68
2022/06/01 02:03:23;;;;;;;12.23;10.70;;;9.60;99.90;;;;;;5072361;28;20197;-68
2022/06/01 02:06:23;;;;;;;12.80;10.57;;;9.60;99.90;;;;;;5073512;28;20181;-69
2022/06/01 02:09:06;;;;;;;14.03;10.70;;;9.50;99.90;;;;;;5073538;28;20209;-68
2022/06/01 02:14:42;;;;;;;14.23;10.80;;;9.40;99.90;;;;;;5073896;28;20584;-68
2022/06/01 02:17:19;;;;;;;12.33;9.90;;;9.30;99.90;;;;;;5072362;28;20166;-68
2022/06/01 02:20:20;;;;;;;14.20;10.53;;;9.30;99.90;;;;;;5073681;28;20609;-68
2022/06/01 02:22:46;;;;;;;13.43;9.77;;;9.30;99.90;;;;;;5066183;28;20197;-68
2022/06/01 02:25:12;;;;;;;13.03;10.73;;;9.20;99.90;;;;;;5073418;28;20537;-68
2022/06/01 02:27:39;;;;;;;13.17;10.40;;;9.20;99.90;;;;;;5073842;28;20642;-68
2022/06/01 02:30:16;;;;;;;13.53;10.23;;;9.10;99.90;;;;;;5072183;28;20693;-68
2022/06/01 02:32:44;;;;;;;11.57;10.10;;;9.10;99.90;;;;;;5073776;28;20166;-67
2022/06/01 02:35:13;;;;;;;12.27;9.90;;;9.10;99.90;;;;;;5072947;28;20212;-68
2022/06/01 02:37:43;;;;;;;12.70;9.43;;;9.00;99.90;;;;;;5073135;28;20173;-68
2022/06/01 02:40:13;;;;;;;10.53;9.43;;;9.00;99.90;;;;;;5073289;28;20201;-69
2022/06/01 02:42:50;;;;;;;12.73;9.57;;;8.90;99.90;;;;;;5073487;28;20166;-68
2022/06/01 02:45:18;;;;;;;11.73;9.50;;;8.90;99.90;;;;;;5073379;28;20170;-68
2022/06/01 02:47:45;;;;;;;13.03;9.70;;;8.90;99.90;;;;;;5072029;28;20570;-68
2022/06/01 02:50:26;;;;;;;10.57;9.23;;;8.90;99.90;;;;;;5072887;28;20662;-68
2022/06/01 02:52:53;;;;;;;10.87;9.00;;;8.80;99.90;;;;;;5073500;28;20249;-68
2022/06/01 02:55:21;;;;;;;10.77;8.40;;;8.70;99.90;;;;;;5072091;28;20579;-68
2022/06/01 02:57:47;;;;;;;10.23;9.00;;;8.70;99.90;;;;;;5073542;28;20166;-68
2022/06/01 03:00:19;;;;;;;11.03;9.07;;;8.70;99.90;;;;;;5073677;28;20727;-67
2022/06/01 03:02:54;;;;;;;10.90;8.80;;;8.60;99.90;;;;;;5077350;28;20174;-68
2022/06/01 03:05:23;;;;;;;10.13;8.50;;;8.50;99.90;;;;;;5077469;28;20525;-68
2022/06/01 03:07:49;;;;;;;11.27;9.50;;;8.60;99.90;;;;;;5077391;28;20185;-75
2022/06/01 03:10:15;;;;;;;10.67;9.37;;;8.60;99.90;;;;;;5077115;28;20221;-70
2022/06/01 03:12:42;;;;;;;12.07;9.53;;;8.60;99.90;;;;;;5077399;28;20271;-69
2022/06/01 03:15:10;;;;;;;9.80;8.80;;;8.60;99.90;;;;;;5076725;28;20292;-68
2022/06/01 03:17:36;;;;;;;11.80;9.60;;;8.50;99.90;;;;;;5075671;28;20174;-69
2022/06/01 03:20:07;;;;;;;11.17;9.77;;;8.50;99.90;;;;;;5076585;28;20193;-67
2022/06/01 03:22:37;;;;;;;13.17;10.50;;;8.50;99.90;;;;;;5076708;28;20161;-68
2022/06/01 03:25:06;;;;;;;12.80;9.90;;;8.50;99.90;;;;;;5076484;28;20174;-70
2022/06/01 03:27:32;;;;;;;15.83;10.33;;;8.50;99.90;;;;;;5075275;28;20534;-68
2022/06/01 03:29:57;;;;;;;12.27;10.53;;;8.50;99.90;;;;;;5076508;28;20205;-67
2022/06/01 03:32:23;;;;;;;14.47;10.50;;;8.50;99.90;;;;;;5077270;28;20178;-65
2022/06/01 03:34:49;;;;;;;14.77;11.03;;;8.50;99.90;;;;;;5076097;28;20202;-66
2022/06/01 03:37:14;;;;;;;12.33;10.23;;;8.50;99.90;;;;;;5076436;28;20590;-66
2022/06/01 03:39:40;;;;;;;12.83;10.97;;;8.60;99.90;;;;;;5076100;28;20346;-66
2022/06/01 03:42:06;;;;;;;12.53;10.23;;;8.60;99.90;;;;;;5076467;28;20193;-66
2022/06/01 03:47:16;;;;;;;16.87;11.10;;;8.50;99.90;;;;;;5076181;28;20192;-66
2022/06/01 03:49:42;;;;;;;11.93;10.73;;;8.50;99.90;;;;;;5076194;28;20197;-66
2022/06/01 03:52:09;;;;;;;12.53;10.47;;;8.50;99.90;;;;;;5075946;28;20220;-65
2022/06/01 03:54:36;;;;;;;12.43;10.20;;;8.40;99.90;;;;;;5076096;28;20572;-66
2022/06/01 03:57:02;;;;;;;13.43;11.03;;;8.40;99.90;;;;;;5074782;28;20178;-66
2022/06/01 03:59:30;;;;;;;14.40;11.37;;;8.40;99.90;;;;;;5076341;28;20177;-66
2022/06/01 04:01:56;;;;;;;13.53;11.60;;;8.40;99.90;;;;;;5076390;28;20170;-66
2022/06/01 04:04:22;;;;;;;15.60;12.03;;;8.40;99.90;;;;;;5075965;28;20189;-66
2022/06/01 04:06:47;;;;;;;14.80;11.23;;;8.40;99.90;;;;;;5075809;28;20547;-66
2022/06/01 04:09:13;;;;;;;14.00;11.50;;;8.40;99.90;;;;;;5075832;28;20193;-66
2022/06/01 04:11:39;;;;;;;14.90;12.07;;;8.50;99.90;;;;;;5076038;28;20181;-66
2022/06/01 04:14:04;;;;;;;13.70;10.90;;;8.60;99.90;;;;;;5075681;28;20318;-66
2022/06/01 04:16:30;;;;;;;14.40;11.30;;;8.60;99.90;;;;;;5075804;28;20181;-66
2022/06/01 04:18:56;;;;;;;14.73;11.53;;;8.70;99.90;;;;;;5076118;28;20170;-66
2022/06/01 04:21:25;;;;;;;12.93;10.33;;;8.80;99.90;;;;;;5075241;28;20194;-66
2022/06/01 04:23:51;;;;;;;14.23;11.10;;;8.80;99.90;;;;;;5074440;28;20588;-66
2022/06/01 04:26:17;;;;;;;12.10;10.63;;;8.80;99.90;;;;;;5075597;28;20257;-67
2022/06/01 04:28:44;;;;;;;14.97;11.40;;;8.80;99.90;;;;;;5074237;28;20593;-67
2022/06/01 04:31:10;;;;;;;15.37;11.93;;;8.80;99.90;;;;;;5075596;28;20204;-67
2022/06/01 04:33:38;;;;;;;14.13;11.70;;;8.80;99.90;;;;;;5075492;28;20256;-67
2022/06/01 04:36:05;;;;;;;14.07;10.87;;;8.90;99.90;;;;;;5075218;28;20174;-67
2022/06/01 04:38:30;;;;;;;12.87;11.20;;;9.00;99.90;;;;;;5074599;28;20243;-67
2022/06/01 04:40:56;;;;;;;12.73;11.33;;;9.10;99.90;;;;;;5078980;28;20194;-67
2022/06/01 04:43:23;;;;;;;14.47;11.43;;;9.10;99.90;;;;;;5077551;28;20178;-67
2022/06/01 04:45:55;;;;;;;13.50;11.23;;;9.20;99.90;;;;;;5075802;28;20173;-66
2022/06/01 04:48:22;;;;;;;17.83;11.83;;;9.20;99.90;;;;;;5075014;28;20177;-66
2022/06/01 04:50:49;;;;;;;14.63;11.33;;;9.20;99.90;;;;;;5074652;28;20208;-67
2022/06/01 04:53:17;;;;;;;13.63;11.50;;;9.20;99.90;;;;;;5074721;28;20231;-67
2022/06/01 04:55:44;;;;;;;14.93;11.50;;;9.20;99.90;;;;;;5075089;28;20593;-66
2022/06/01 04:58:10;;;;;;;15.80;12.17;;;9.10;99.90;;;;;;5074731;28;20663;-66
2022/06/01 05:00:37;;;;;;;14.97;12.17;;;9.10;99.90;;;;;;5074795;28;20250;-67
2022/06/01 05:03:03;;;;;;;17.10;12.57;;;9.20;99.90;;;;;;5073352;28;20662;-67
2022/06/01 05:05:29;;;;;;;16.23;12.37;;;9.30;99.90;;;;;;5074387;28;20177;-66
2022/06/01 05:07:55;;;;;;;15.23;12.33;;;9.40;99.90;;;;;;5074419;28;20277;-67
2022/06/01 05:10:22;;;;;;;19.03;13.03;;;9.50;99.90;;;;;;5074595;28;20193;-67
2022/06/01 05:12:51;;;;;;;18.47;13.20;;;9.50;99.90;;;;;;5074682;28;20178;-67
2022/06/01 05:15:17;;;;;;;18.63;12.53;;;9.60;99.90;;;;;;5074101;28;20659;-67
2022/06/01 05:17:43;;;;;;;15.77;12.17;;;9.70;99.90;;;;;;5072958;28;20273;-66
2022/06/01 05:20:10;;;;;;;17.07;13.40;;;9.80;99.90;;;;;;5074220;28;20192;-67
2022/06/01 05:22:36;;;;;;;17.43;12.50;;;9.80;99.90;;;;;;5074192;28;20223;-67
2022/06/01 05:25:02;;;;;;;20.50;13.03;;;9.90;99.90;;;;;;5072264;28;20220;-66
2022/06/01 05:27:28;;;;;;;14.87;11.87;;;10.00;99.90;;;;;;5072737;28;20185;-66
2022/06/01 05:29:54;;;;;;;16.80;13.57;;;10.10;99.90;;;;;;5074000;28;20201;-67
2022/06/01 05:32:20;;;;;;;16.70;12.57;;;10.20;99.90;;;;;;5073984;28;20197;-66
2022/06/01 05:34:46;;;;;;;20.83;13.57;;;10.30;99.90;;;;;;5072587;28;20666;-66
2022/06/01 05:37:11;;;;;;;15.83;12.47;;;10.40;99.90;;;;;;5073657;28;20178;-66
2022/06/01 05:39:37;;;;;;;19.33;13.37;;;10.50;99.90;;;;;;5073967;28;20206;-67
2022/06/01 05:42:03;;;;;;;20.20;13.50;;;10.50;99.90;;;;;;5072504;28;20288;-66
2022/06/01 05:44:29;;;;;;;17.30;13.07;;;10.60;99.90;;;;;;5073775;28;20184;-67
2022/06/01 05:46:56;;;;;;;18.20;12.97;;;10.70;99.90;;;;;;5072456;28;20268;-66
2022/06/01 05:49:22;;;;;;;15.87;13.53;;;10.80;99.90;;;;;;5073528;28;20647;-67
2022/06/01 05:51:48;;;;;;;17.13;12.47;;;10.90;99.90;;;;;;5071976;28;20693;-67
2022/06/01 05:54:14;;;;;;;17.90;13.03;;;10.90;99.90;;;;;;5073753;28;20565;-67
2022/06/01 05:56:39;;;;;;;16.70;13.07;;;11.00;99.90;;;;;;5073528;28;20174;-67
2022/06/01 05:59:05;;;;;;;16.77;13.07;;;11.10;99.90;;;;;;5073757;28;20174;-67
2022/06/01 06:01:31;;;;;;;18.67;13.77;;;11.10;99.90;;;;;;5073336;28;20193;-67
2022/06/01 06:03:57;;;;;;;17.30;13.40;;;11.20;99.90;;;;;;5073423;28;20260;-67
2022/06/01 06:06:24;;;;;;;17.20;13.27;;;11.20;99.90;;;;;;5073193;28;20228;-67
2022/06/01 06:08:51;;;;;;;16.07;12.93;;;11.30;99.90;;;;;;5073403;28;20593;-67
2022/06/01 06:11:18;;;;;;;16.23;13.47;;;11.30;99.90;;;;;;5073589;28;20205;-66
2022/06/01 06:13:45;;;;;;;18.40;13.87;;;11.40;99.90;;;;;;5073200;28;20242;-66
2022/06/01 06:16:12;;;;;;;15.53;13.07;;;11.40;99.90;;;;;;5073574;28;20256;-66
2022/06/01 06:18:38;;;;;;;21.27;14.47;;;11.50;99.90;;;;;;5073550;28;20256;-66
2022/06/01 06:21:04;;;;;;;21.70;14.87;;;11.60;99.90;;;;;;5073018;28;20270;-67
2022/06/01 06:23:30;;;;;;;19.13;14.53;;;11.60;99.90;;;;;;5073312;28;20181;-66
2022/06/01 06:25:57;;;;;;;20.07;15.17;;;11.70;99.90;;;;;;5071990;28;20177;-66
2022/06/01 06:28:23;;;;;;;20.67;14.60;;;11.90;99.90;;;;;;5073242;28;20234;-67
2022/06/01 06:30:49;;;;;;;22.53;14.50;;;12.00;99.90;;;;;;5073119;28;20273;-67
2022/06/01 06:33:15;;;;;;;21.73;15.60;;;12.10;99.90;;;;;;5071869;28;20185;-67
2022/06/01 06:35:41;;;;;;;22.00;16.33;;;12.20;99.90;;;;;;5073788;28;20560;-67
2022/06/01 06:38:07;;;;;;;22.93;16.57;;;12.30;99.90;;;;;;5077145;28;20280;-67
2022/06/01 06:40:33;;;;;;;26.07;15.20;;;12.30;99.90;;;;;;5077909;28;20217;-67
2022/06/01 06:42:58;;;;;;;23.10;16.37;;;12.40;99.90;;;;;;5077069;28;20182;-67
2022/06/01 06:45:24;;;;;;;25.63;17.07;;;12.40;99.90;;;;;;5077548;28;20261;-66
2022/06/01 06:47:50;;;;;;;20.80;16.70;;;12.50;99.90;;;;;;5077602;28;20631;-67
2022/06/01 06:50:18;;;;;;;21.23;16.47;;;12.50;99.90;;;;;;5076760;28;20194;-66
2022/06/01 06:52:43;;;;;;;23.50;16.97;;;12.60;99.90;;;;;;5076563;28;20178;-66
2022/06/01 06:55:10;;;;;;;21.63;16.43;;;12.60;99.90;;;;;;5077004;28;20197;-67
2022/06/01 06:57:36;;;;;;;20.10;15.73;;;12.70;99.90;;;;;;5076692;28;20178;-67
2022/06/01 07:00:05;;;;;;;20.30;15.27;;;12.70;99.90;;;;;;5076600;28;20244;-66
2022/06/01 07:02:31;;;;;;;20.80;14.93;;;12.80;99.90;;;;;;5076723;28;20178;-66
2022/06/01 07:04:56;;;;;;;19.63;15.33;;;12.90;99.90;;;;;;5076857;28;20169;-66
2022/06/01 07:07:22;;;;;;;20.97;14.27;;;12.90;99.90;;;;;;5076323;28;20184;-67
2022/06/01 07:09:48;;;;;;;16.77;14.32;;;13.10;99.90;;;;;;5076400;28;20682;-66
2022/06/01 07:12:14;;;;;;;19.97;13.83;;;13.10;99.90;;;;;;5077068;28;20158;-67
2022/06/01 07:14:39;;;;;;;16.93;12.93;;;13.20;99.90;;;;;;5076378;28;20217;-67
2022/06/01 07:17:05;;;;;;;18.13;13.80;;;13.30;99.90;;;;;;5076355;28;20178;-66
2022/06/01 07:19:31;;;;;;;17.85;11.90;;;13.40;99.90;;;;;;5076479;28;20193;-67
2022/06/01 07:21:57;;;;;;;18.37;13.20;;;13.40;99.90;;;;;;5076006;28;20181;-67
2022/06/01 07:24:23;;;;;;;20.23;13.03;;;13.40;99.90;;;;;;5076320;28;20230;-67
2022/06/01 07:26:49;;;;;;;15.43;11.70;;;13.50;99.90;;;;;;5076537;28;20223;-67
2022/06/01 07:29:18;;;;;;;15.57;9.80;;;13.60;99.90;;;;;;5076137;28;20224;-66
2022/06/01 07:31:45;;;;;;;11.52;8.18;;;13.60;99.90;;;;;;5076207;28;20233;-67
2022/06/01 07:34:11;;;;;;;11.13;6.80;;;13.60;99.90;;;;;;5074750;28;20213;-66
2022/06/01 07:36:37;;;;;;;8.13;6.20;;;13.60;99.90;;;;;;5075783;28;20169;-67
2022/06/01 07:44:39;;;;;;;6.28;5.35;;;13.80;99.90;;;;;;5076627;28;20189;-67
2022/06/01 07:47:05;;;;;;;10.20;5.78;;;13.90;99.90;;;;;;5076616;28;20173;-67
2022/06/01 07:49:31;;;;;;;8.40;5.47;;;14.00;99.90;;;;;;5076023;28;20243;-69
2022/06/01 07:51:56;;;;;;;7.38;4.68;;;14.00;99.90;;;;;;5075744;28;20174;-67
2022/06/01 07:54:23;;;;;;;7.55;4.35;;;14.10;99.90;;;;;;5074588;28;20629;-67
2022/06/01 07:56:49;;;;;;;10.30;4.60;;;14.20;99.90;;;;;;5076537;28;20627;-65
2022/06/01 07:59:15;;;;;;;5.53;4.13;;;14.30;99.90;;;;;;5077384;28;20174;-66
2022/06/01 08:01:41;;;;;;;5.20;4.30;;;14.30;99.90;;;;;;5077413;28;20261;-66
2022/06/01 08:04:09;;;;;;;4.80;3.92;;;14.50;99.90;;;;;;5075109;28;20185;-66
2022/06/01 08:06:38;;;;;;;5.63;3.75;;;14.50;99.90;;;;;;5076051;28;20162;-66
2022/06/01 08:09:05;;;;;;;4.57;3.38;;;14.50;99.90;;;;;;5075514;28;20672;-67
2022/06/01 08:14:15;;;;;;;4.28;3.88;;;14.80;99.90;;;;;;5076123;28;20291;-68
2022/06/01 08:16:44;;;;;;;5.00;3.83;;;14.70;99.90;;;;;;5075599;28;20702;-66
2022/06/01 08:19:11;;;;;;;3.95;3.53;;;14.70;99.90;;;;;;5076279;28;20166;-66
2022/06/01 08:21:37;;;;;;;5.25;4.22;;;14.80;99.90;;;;;;5075642;28;20256;-65
2022/06/01 08:24:09;;;;;;;5.78;3.90;;;14.90;99.90;;;;;;5076052;28;20177;-68
2022/06/01 08:26:35;;;;;;;6.32;4.03;;;14.80;99.90;;;;;;5074562;28;20268;-68
2022/06/01 08:29:02;;;;;;;7.90;4.43;;;14.80;99.90;;;;;;5075705;28;20178;-67
2022/06/01 08:31:29;;;;;;;8.55;4.95;;;14.70;99.90;;;;;;5075356;28;20190;-67
2022/06/01 08:33:57;;;;;;;9.07;4.22;;;14.70;99.90;;;;;;5075839;28;20284;-67
2022/06/01 08:36:22;;;;;;;4.70;3.58;;;14.50;99.90;;;;;;5075620;28;20162;-67
2022/06/01 08:38:48;;;;;;;5.00;3.65;;;14.40;99.90;;;;;;5074231;28;20711;-67
2022/06/01 08:41:15;;;;;;;6.97;3.35;;;14.20;99.90;;;;;;5074211;28;20194;-67
2022/06/01 08:43:43;;;;;;;4.68;3.83;;;14.10;99.90;;;;;;5075240;28;20226;-67
2022/06/01 08:46:09;;;;;;;7.28;3.60;;;14.10;99.90;;;;;;5075470;28;20162;-68
2022/06/01 08:48:44;;;;;;;4.25;3.85;;;14.30;99.90;;;;;;5075137;28;20166;-68
2022/06/01 08:51:11;;;;;;;5.00;3.63;;;14.60;99.90;;;;;;5073405;28;20204;-68
2022/06/01 08:53:38;;;;;;;4.28;3.65;;;14.90;99.90;;;;;;5075490;28;20261;-68
2022/06/01 08:56:10;;;;;;;6.05;4.03;;;15.10;99.90;;;;;;5074894;28;20198;-68
2022/06/01 08:58:44;;;;;;;5.38;3.88;;;15.30;99.90;;;;;;5072791;28;20180;-68
2022/06/01 09:01:23;;;;;;;3.70;3.40;;;14.90;99.90;;;;;;5074915;28;20233;-68
2022/06/01 09:04:11;;;;;;;5.80;4.18;;;14.80;99.90;;;;;;5073483;28;20201;-68
2022/06/01 09:06:45;;;;;;;8.40;3.88;;;14.80;99.90;;;;;;5074799;28;20193;-68
2022/06/01 09:09:17;;;;;;;7.22;4.03;;;14.80;99.90;;;;;;5074803;28;20182;-68
2022/06/01 09:11:45;;;;;;;7.15;3.90;;;14.70;99.90;;;;;;5074817;28;20237;-68
2022/06/01 09:14:18;;;;;;;4.72;3.50;;;15.00;99.90;;;;;;5074856;28;20220;-68
2022/06/01 09:16:46;;;;;;;6.47;3.90;;;15.30;99.90;;;;;;5073515;28;20170;-68
2022/06/01 09:19:25;;;;;;;5.00;3.47;;;15.50;99.90;;;;;;5073609;28;20166;-68
2022/06/01 09:24:44;;;;;;;5.63;3.53;;;15.50;99.90;;;;;;5074657;28;20165;-68
2022/06/01 09:27:12;;;;;;;3.45;3.15;;;15.50;99.90;;;;;;5074121;28;20697;-68
2022/06/01 09:29:52;;;;;;;3.60;3.03;;;15.60;99.90;;;;;;5073921;28;20197;-68
2022/06/01 09:32:36;;;;;;;4.45;3.30;;;15.60;99.90;;;;;;5074027;28;20248;-68
2022/06/01 09:35:06;;;;;;;3.15;2.80;;;15.80;99.90;;;;;;5074000;28;20238;-68
2022/06/01 09:37:39;;;;;;;4.32;2.90;;;15.80;99.90;;;;;;5073601;28;20174;-68
2022/06/01 09:40:23;;;;;;;5.43;3.20;;;15.70;99.90;;;;;;5073950;28;20201;-68
2022/06/01 09:42:52;;;;;;;3.45;2.97;;;15.70;99.90;;;;;;5074149;28;20672;-68
2022/06/01 09:45:33;;;;;;;4.00;3.40;;;16.10;99.90;;;;;;5075606;28;20178;-68
2022/06/01 09:48:24;;;;;;;5.68;3.30;;;16.40;99.90;;;;;;5074556;28;20164;-68
2022/06/01 09:51:08;;;;;;;4.43;2.95;;;16.70;99.90;;;;;;5073973;28;20189;-68
2022/06/01 09:54:10;;;;;;;3.40;2.92;;;16.60;99.90;;;;;;5072659;28;20166;-68
2022/06/01 09:56:45;;;;;;;5.00;3.05;;;16.30;99.90;;;;;;5066758;28;20193;-68
2022/06/01 10:08:08;;;;;;;3.20;2.90;;;17.40;99.90;;;;;;5073987;28;20215;-68
2022/06/01 10:10:35;;;;;;;2.95;2.75;;;17.40;99.90;;;;;;5073925;28;20700;-68
2022/06/01 10:13:02;;;;;;;6.57;2.63;;;17.40;99.90;;;;;;5075416;28;20194;-68
2022/06/01 10:15:37;;;;;;;3.72;2.95;;;17.20;99.90;;;;;;5074298;28;20217;-68
2022/06/01 10:18:13;;;;;;;5.22;3.05;;;17.20;99.90;;;;;;5073996;28;20179;-68
2022/06/01 10:20:56;;;;;;;5.30;2.95;;;17.10;99.90;;;;;;5074022;28;20192;-68
2022/06/01 10:23:43;;;;;;;3.33;2.60;;;17.10;99.90;;;;;;5073666;28;20161;-68
2022/06/01 10:26:16;;;;;;;3.00;2.70;;;17.20;99.90;;;;;;5072399;28;20170;-68
2022/06/01 10:28:47;;;;;;;2.65;2.38;;;17.40;99.90;;;;;;5074049;28;20260;-68
2022/06/01 10:31:43;;;;;;;4.28;2.88;;;17.80;99.90;;;;;;5072305;28;20197;-68
2022/06/01 10:34:31;;;;;;;2.83;2.63;;;17.90;99.90;;;;;;5073431;28;20197;-68
2022/06/01 10:37:31;;;;;;;5.30;2.78;;;17.80;99.90;;;;;;5073219;28;20154;-68
2022/06/01 10:40:21;;;;;;;3.30;2.95;;;17.70;99.90;;;;;;5073632;28;20554;-68
2022/06/01 10:45:52;;;;;;;3.20;2.47;;;17.80;99.90;;;;;;5074099;28;20168;-68
2022/06/01 10:48:34;;;;;;;2.75;2.20;;;17.70;99.90;;;;;;5073619;28;20162;-68
2022/06/01 10:51:02;;;;;;;2.88;2.50;;;17.80;99.90;;;;;;5073456;28;20194;-68
2022/06/01 10:53:40;;;;;;;2.58;2.30;;;17.80;99.90;;;;;;5073144;28;20182;-68
2022/06/01 10:56:06;;;;;;;2.83;2.63;;;17.70;99.90;;;;;;5073169;28;20161;-68
2022/06/01 10:58:33;;;;;;;3.42;2.88;;;17.80;99.90;;;;;;5073128;28;20169;-68
2022/06/01 11:01:15;;;;;;;3.33;2.58;;;18.10;99.90;;;;;;5071694;28;20243;-68
2022/06/01 11:03:58;;;;;;;2.50;2.30;;;18.20;99.90;;;;;;5073695;28;20162;-68
2022/06/01 11:07:01;;;;;;;2.20;2.00;;;18.50;99.90;;;;;;5072811;28;20609;-68
2022/06/01 11:09:54;;;;;;;3.03;2.33;;;18.90;99.90;;;;;;5090175;28;20261;-68
2022/06/01 11:12:29;;;;;;;3.72;2.60;;;19.10;99.90;;;;;;5093102;28;20618;-68
2022/06/01 11:15:02;;;;;;;3.08;2.20;;;19.10;99.90;;;;;;5093216;28;20204;-68
2022/06/01 11:18:13;;;;;;;2.80;2.53;;;19.20;99.90;;;;;;5093432;28;20192;-68
2022/06/01 11:20:54;;;;;;;2.42;2.22;;;18.90;99.90;;;;;;5093096;28;20218;-68
2022/06/01 11:23:23;;;;;;;3.92;2.60;;;18.80;99.90;;;;;;5096214;28;20165;-68
2022/06/01 11:26:01;;;;;;;3.75;2.35;;;18.60;99.90;;;;;;5096626;28;20177;-68
2022/06/01 11:29:10;;;;;;;2.63;2.28;;;18.40;99.90;;;;;;5095365;28;20181;-68
2022/06/01 11:31:38;;;;;;;4.75;2.60;;;18.00;99.90;;;;;;5096695;28;20225;-68
2022/06/01 11:34:24;;;;;;;3.22;2.20;;;17.90;99.90;;;;;;5097061;28;20671;-68
2022/06/01 11:37:14;;;;;;;2.88;2.30;;;17.90;99.90;;;;;;5094850;28;20180;-68
2022/06/01 11:39:52;;;;;;;2.15;2.00;;;17.80;99.90;;;;;;5096115;28;20205;-68
2022/06/01 11:42:30;;;;;;;3.30;2.20;;;17.90;99.90;;;;;;5096273;28;20244;-68
2022/06/01 11:44:58;;;;;;;3.20;2.45;;;17.80;99.90;;;;;;5096196;28;20622;-68
2022/06/01 11:47:25;;;;;;;2.50;2.30;;;18.30;99.90;;;;;;5096477;28;20178;-68
2022/06/01 11:50:09;;;;;;;3.38;2.35;;;18.70;99.90;;;;;;5096141;28;20206;-68
2022/06/01 11:52:45;;;;;;;2.05;1.92;;;19.10;99.90;;;;;;5094683;28;20168;-68
2022/06/01 11:55:26;;;;;;;3.10;2.10;;;19.70;99.90;;;;;;5095780;28;20189;-68
2022/06/01 11:58:11;;;;;;;2.08;1.85;;;20.10;99.90;;;;;;5096139;28;20165;-68
2022/06/01 12:00:47;;;;;;;2.85;1.80;;;20.40;99.90;;;;;;5096108;28;20596;-68
2022/06/01 12:03:16;;;;;;;6.78;2.25;;;20.30;99.90;;;;;;5095920;28;20234;-67
2022/06/01 12:06:11;;;;;;;2.88;2.08;;;20.00;99.90;;;;;;5094585;28;20657;-68
2022/06/01 12:08:54;;;;;;;3.70;2.22;;;19.80;99.90;;;;;;5094205;28;20188;-68
2022/06/01 12:11:38;;;;;;;5.40;2.10;;;19.70;99.90;;;;;;5096013;28;20192;-68
2022/06/01 12:14:27;;;;;;;3.67;2.08;;;19.10;99.90;;;;;;5095682;28;20209;-68
2022/06/01 12:17:17;;;;;;;2.75;2.50;;;18.60;99.90;;;;;;5095621;28;20181;-68
2022/06/01 12:19:49;;;;;;;4.57;2.55;;;18.10;99.90;;;;;;5095484;28;20185;-68
2022/06/01 12:28:46;;;;;;;2.50;2.30;;;17.20;99.90;;;;;;5095589;28;20649;-68
2022/06/01 12:31:22;;;;;;;2.40;2.20;;;17.10;99.90;;;;;;5095214;28;20661;-68
2022/06/01 12:34:09;;;;;;;3.35;2.88;;;17.00;99.90;;;;;;5093836;28;20165;-68
2022/06/01 12:36:46;;;;;;;4.30;2.53;;;16.90;99.90;;;;;;5094758;28;20161;-68
2022/06/01 12:39:29;;;;;;;5.07;2.67;;;16.80;99.90;;;;;;5094956;28;20188;-68
2022/06/01 12:42:02;;;;;;;4.25;2.88;;;16.60;99.90;;;;;;5094983;28;20192;-68
2022/06/01 12:44:31;;;;;;;5.53;2.85;;;16.40;99.90;;;;;;5095142;28;20214;-68
2022/06/01 12:46:58;;;;;;;5.40;3.33;;;16.20;99.90;;;;;;5094985;28;20201;-68
2022/06/01 12:49:33;;;;;;;7.30;3.58;;;15.90;99.90;;;;;;5094775;28;20173;-67
2022/06/01 12:52:06;;;;;;;4.50;3.55;;;15.60;99.90;;;;;;5094800;28;20198;-67
2022/06/01 12:54:50;;;;;;;4.18;3.78;;;15.00;99.90;;;;;;5094241;28;20215;-65
2022/06/01 12:57:25;;;;;;;4.50;3.88;;;14.40;99.90;;;;;;5095799;28;20157;-65
2022/06/01 13:00:08;;;;;;;5.07;3.65;;;14.10;99.90;;;;;;5093737;28;20196;-65
2022/06/01 13:02:38;;;;;;;4.65;4.07;;;13.70;99.90;;;;;;5096152;28;20160;-65
2022/06/01 13:05:08;;;;;;;5.18;3.63;;;13.40;99.90;;;;;;5093452;28;20184;-65
2022/06/01 13:07:38;;;;;;;3.77;3.07;;;13.20;99.90;;;;;;5094979;28;20629;-67
2022/06/01 13:10:18;;;;;;;3.53;3.22;;;13.10;99.90;;;;;;5094969;28;20268;-66
2022/06/01 13:12:44;;;;;;;4.65;3.33;;;13.00;99.90;;;;;;5093293;28;20161;-67
2022/06/01 13:15:24;;;;;;;4.45;2.88;;;13.10;99.90;;;;;;5094331;28;20266;-67
2022/06/01 13:17:53;;;;;;;5.00;2.88;;;13.40;99.90;;;;;;5093323;28;20683;-67
2022/06/01 13:20:25;;;;;;;2.92;2.65;;;13.80;99.90;;;;;;5095033;28;20192;-68
2022/06/01 13:22:53;;;;;;;3.95;2.97;;;14.30;99.90;;;;;;5094826;28;20198;-67
2022/06/01 13:25:30;;;;;;;4.13;2.83;;;14.90;99.90;;;;;;5094356;28;20285;-66
2022/06/01 13:27:57;;;;;;;4.13;2.80;;;15.90;99.90;;;;;;5095102;28;20161;-69
2022/06/01 13:30:31;;;;;;;4.05;2.97;;;16.90;99.90;;;;;;5094575;28;20238;-69
2022/06/01 13:32:57;;;;;;;3.15;2.95;;;17.90;99.90;;;;;;5094664;28;20165;-69
2022/06/01 13:35:53;;;;;;;5.50;3.58;;;17.90;99.90;;;;;;5092898;28;20188;-69
2022/06/01 13:38:23;;;;;;;3.35;2.90;;;17.80;99.90;;;;;;5092775;28;20204;-69